sensor_id;sensor_type;location;lat;lon;timestamp;temperature;humidity
19039;DHT22;9652;49.014;12.052;2023-05-10T00:00:39;18.90;47.00
19039;DHT22;9652;49.014;12.052;2023-05-10T00:03:07;18.90;47.10
19039;DHT22;9652;49.014;12.052;2023-05-10T00:05:34;18.90;47.10
19039;DHT22;9652;49.014;12.052;2023-05-10T00:08:01;18.90;47.30
19039;DHT22;9652;49.014;12.052;2023-05-10T00:10:28;18.90;47.40
19039;DHT22;9652;49.014;12.052;2023-05-10T00:12:56;18.90;47.50
19039;DHT22;9652;49.014;12.052;2023-05-10T00:15:23;18.90;47.50
19039;DHT22;9652;49.014;12.052;2023-05-10T00:17:50;18.90;47.50
19039;DHT22;9652;49.014;12.052;2023-05-10T00:20:18;18.90;47.50
19039;DHT22;9652;49.014;12.052;2023-05-10T00:22:45;18.90;47.50
19039;DHT22;9652;49.014;12.052;2023-05-10T00:25:12;18.90;47.50
19039;DHT22;9652;49.014;12.052;2023-05-10T00:27:40;18.90;47.50
19039;DHT22;9652;49.014;12.052;2023-05-10T00:30:07;18.90;47.50
19039;DHT22;9652;49.014;12.052;2023-05-10T00:32:35;18.90;47.50
19039;DHT22;9652;49.014;12.052;2023-05-10T00:35:02;18.90;47.50
19039;DHT22;9652;49.014;12.052;2023-05-10T00:37:31;18.80;47.60
19039;DHT22;9652;49.014;12.052;2023-05-10T00:39:58;18.80;47.60
19039;DHT22;9652;49.014;12.052;2023-05-10T00:42:26;18.80;47.70
19039;DHT22;9652;49.014;12.052;2023-05-10T00:44:54;18.80;47.80
19039;DHT22;9652;49.014;12.052;2023-05-10T00:47:22;18.80;47.90
19039;DHT22;9652;49.014;12.052;2023-05-10T00:49:49;18.80;48.00
19039;DHT22;9652;49.014;12.052;2023-05-10T00:52:16;18.80;48.00
19039;DHT22;9652;49.014;12.052;2023-05-10T00:54:45;18.80;48.10
19039;DHT22;9652;49.014;12.052;2023-05-10T00:57:13;18.80;48.20
19039;DHT22;9652;49.014;12.052;2023-05-10T00:59:40;18.80;48.20
19039;DHT22;9652;49.014;12.052;2023-05-10T01:02:07;18.80;48.20
19039;DHT22;9652;49.014;12.052;2023-05-10T01:04:35;18.80;48.10
19039;DHT22;9652;49.014;12.052;2023-05-10T01:07:03;18.70;48.30
19039;DHT22;9652;49.014;12.052;2023-05-10T01:09:30;18.70;48.40
19039;DHT22;9652;49.014;12.052;2023-05-10T01:11:59;18.80;48.50
19039;DHT22;9652;49.014;12.052;2023-05-10T01:14:28;18.70;48.60
19039;DHT22;9652;49.014;12.052;2023-05-10T01:16:56;18.90;48.60
19039;DHT22;9652;49.014;12.052;2023-05-10T01:19:25;18.70;48.50
19039;DHT22;9652;49.014;12.052;2023-05-10T01:22:14;18.70;48.60
19039;DHT22;9652;49.014;12.052;2023-05-10T01:25:11;18.70;48.70
19039;DHT22;9652;49.014;12.052;2023-05-10T01:28:13;18.80;48.70
19039;DHT22;9652;49.014;12.052;2023-05-10T01:31:06;18.80;48.80
19039;DHT22;9652;49.014;12.052;2023-05-10T01:33:46;18.80;48.80
19039;DHT22;9652;49.014;12.052;2023-05-10T01:36:24;18.80;48.70
19039;DHT22;9652;49.014;12.052;2023-05-10T01:39:01;18.80;48.60
19039;DHT22;9652;49.014;12.052;2023-05-10T01:41:39;18.80;48.60
19039;DHT22;9652;49.014;12.052;2023-05-10T01:44:18;18.80;48.70
19039;DHT22;9652;49.014;12.052;2023-05-10T01:47:05;18.80;48.70
19039;DHT22;9652;49.014;12.052;2023-05-10T01:49:41;18.80;48.90
19039;DHT22;9652;49.014;12.052;2023-05-10T01:52:14;18.80;48.80
19039;DHT22;9652;49.014;12.052;2023-05-10T01:54:49;18.80;48.80
19039;DHT22;9652;49.014;12.052;2023-05-10T01:57:22;18.80;49.50
19039;DHT22;9652;49.014;12.052;2023-05-10T01:59:55;18.80;48.80
19039;DHT22;9652;49.014;12.052;2023-05-10T02:02:24;18.80;48.90
19039;DHT22;9652;49.014;12.052;2023-05-10T02:04:57;18.80;48.90
19039;DHT22;9652;49.014;12.052;2023-05-10T02:07:27;18.80;49.30
19039;DHT22;9652;49.014;12.052;2023-05-10T02:09:55;18.80;49.20
19039;DHT22;9652;49.014;12.052;2023-05-10T02:12:24;18.70;49.10
19039;DHT22;9652;49.014;12.052;2023-05-10T02:14:53;18.70;49.20
19039;DHT22;9652;49.014;12.052;2023-05-10T02:17:23;18.70;49.30
19039;DHT22;9652;49.014;12.052;2023-05-10T02:19:54;18.70;49.60
19039;DHT22;9652;49.014;12.052;2023-05-10T02:22:23;18.70;49.70
19039;DHT22;9652;49.014;12.052;2023-05-10T02:24:53;18.60;49.80
19039;DHT22;9652;49.014;12.052;2023-05-10T02:27:23;18.60;49.90
19039;DHT22;9652;49.014;12.052;2023-05-10T02:29:51;18.50;50.00
19039;DHT22;9652;49.014;12.052;2023-05-10T02:32:21;18.50;50.20
19039;DHT22;9652;49.014;12.052;2023-05-10T02:34:51;18.50;50.40
19039;DHT22;9652;49.014;12.052;2023-05-10T02:37:21;18.40;50.50
19039;DHT22;9652;49.014;12.052;2023-05-10T02:39:50;18.40;50.80
19039;DHT22;9652;49.014;12.052;2023-05-10T02:42:24;18.40;50.80
19039;DHT22;9652;49.014;12.052;2023-05-10T02:44:58;18.40;51.40
19039;DHT22;9652;49.014;12.052;2023-05-10T02:47:27;18.30;51.50
19039;DHT22;9652;49.014;12.052;2023-05-10T02:49:55;18.30;51.50
19039;DHT22;9652;49.014;12.052;2023-05-10T02:52:28;18.30;51.80
19039;DHT22;9652;49.014;12.052;2023-05-10T02:55:04;18.30;52.20
19039;DHT22;9652;49.014;12.052;2023-05-10T02:57:33;18.30;52.00
19039;DHT22;9652;49.014;12.052;2023-05-10T03:00:02;18.30;52.00
19039;DHT22;9652;49.014;12.052;2023-05-10T03:02:31;18.30;52.20
19039;DHT22;9652;49.014;12.052;2023-05-10T03:04:58;18.30;52.30
19039;DHT22;9652;49.014;12.052;2023-05-10T03:07:27;18.30;52.50
19039;DHT22;9652;49.014;12.052;2023-05-10T03:09:54;18.20;52.70
19039;DHT22;9652;49.014;12.052;2023-05-10T03:12:30;18.20;52.70
19039;DHT22;9652;49.014;12.052;2023-05-10T03:15:11;18.20;53.80
19039;DHT22;9652;49.014;12.052;2023-05-10T03:17:47;18.10;53.80
19039;DHT22;9652;49.014;12.052;2023-05-10T03:20:22;18.10;53.90
19039;DHT22;9652;49.014;12.052;2023-05-10T03:23:06;18.10;54.10
19039;DHT22;9652;49.014;12.052;2023-05-10T03:25:40;18.00;54.40
19039;DHT22;9652;49.014;12.052;2023-05-10T03:28:10;17.90;54.40
19039;DHT22;9652;49.014;12.052;2023-05-10T03:30:39;17.90;54.70
19039;DHT22;9652;49.014;12.052;2023-05-10T03:33:09;17.80;54.90
19039;DHT22;9652;49.014;12.052;2023-05-10T03:35:41;17.70;55.40
19039;DHT22;9652;49.014;12.052;2023-05-10T03:38:11;17.70;55.60
19039;DHT22;9652;49.014;12.052;2023-05-10T03:40:39;17.60;55.80
19039;DHT22;9652;49.014;12.052;2023-05-10T03:43:07;17.50;56.00
19039;DHT22;9652;49.014;12.052;2023-05-10T03:45:34;17.50;56.50
19039;DHT22;9652;49.014;12.052;2023-05-10T03:48:02;17.40;56.70
19039;DHT22;9652;49.014;12.052;2023-05-10T03:50:29;17.40;57.10
19039;DHT22;9652;49.014;12.052;2023-05-10T03:52:56;17.40;57.40
19039;DHT22;9652;49.014;12.052;2023-05-10T03:55:25;17.30;58.00
19039;DHT22;9652;49.014;12.052;2023-05-10T03:57:52;17.30;57.90
19039;DHT22;9652;49.014;12.052;2023-05-10T04:00:21;17.30;57.70
19039;DHT22;9652;49.014;12.052;2023-05-10T04:02:51;17.30;57.80
19039;DHT22;9652;49.014;12.052;2023-05-10T04:05:20;17.30;57.80
19039;DHT22;9652;49.014;12.052;2023-05-10T04:07:47;17.20;57.90
19039;DHT22;9652;49.014;12.052;2023-05-10T04:10:15;17.20;58.10
19039;DHT22;9652;49.014;12.052;2023-05-10T04:12:44;17.20;58.20
19039;DHT22;9652;49.014;12.052;2023-05-10T04:15:11;17.10;58.60
19039;DHT22;9652;49.014;12.052;2023-05-10T04:17:38;17.20;58.70
19039;DHT22;9652;49.014;12.052;2023-05-10T04:20:06;17.10;58.80
19039;DHT22;9652;49.014;12.052;2023-05-10T04:22:34;17.10;59.00
19039;DHT22;9652;49.014;12.052;2023-05-10T04:25:01;17.10;59.10
19039;DHT22;9652;49.014;12.052;2023-05-10T04:27:28;17.10;59.40
19039;DHT22;9652;49.014;12.052;2023-05-10T04:29:56;17.10;59.20
19039;DHT22;9652;49.014;12.052;2023-05-10T04:32:24;17.10;59.40
19039;DHT22;9652;49.014;12.052;2023-05-10T04:34:51;17.10;59.30
19039;DHT22;9652;49.014;12.052;2023-05-10T04:37:18;17.10;59.20
19039;DHT22;9652;49.014;12.052;2023-05-10T04:39:46;17.10;59.00
19039;DHT22;9652;49.014;12.052;2023-05-10T04:42:13;17.00;58.90
19039;DHT22;9652;49.014;12.052;2023-05-10T04:44:41;17.10;59.00
19039;DHT22;9652;49.014;12.052;2023-05-10T04:47:09;17.10;59.20
19039;DHT22;9652;49.014;12.052;2023-05-10T04:49:37;17.00;59.50
19039;DHT22;9652;49.014;12.052;2023-05-10T04:52:04;16.90;59.60
19039;DHT22;9652;49.014;12.052;2023-05-10T04:54:32;16.90;59.70
19039;DHT22;9652;49.014;12.052;2023-05-10T04:56:59;16.90;59.50
19039;DHT22;9652;49.014;12.052;2023-05-10T04:59:26;16.90;59.60
19039;DHT22;9652;49.014;12.052;2023-05-10T05:01:53;16.90;59.60
19039;DHT22;9652;49.014;12.052;2023-05-10T05:04:21;16.80;59.90
19039;DHT22;9652;49.014;12.052;2023-05-10T05:06:49;16.70;60.50
19039;DHT22;9652;49.014;12.052;2023-05-10T05:09:16;16.60;60.60
19039;DHT22;9652;49.014;12.052;2023-05-10T05:11:43;16.70;61.00
19039;DHT22;9652;49.014;12.052;2023-05-10T05:14:10;16.70;61.10
19039;DHT22;9652;49.014;12.052;2023-05-10T05:16:37;16.60;61.40
19039;DHT22;9652;49.014;12.052;2023-05-10T05:19:04;16.60;61.60
19039;DHT22;9652;49.014;12.052;2023-05-10T05:21:33;16.70;61.80
19039;DHT22;9652;49.014;12.052;2023-05-10T05:24:00;16.60;62.40
19039;DHT22;9652;49.014;12.052;2023-05-10T05:26:27;16.60;62.60
19039;DHT22;9652;49.014;12.052;2023-05-10T05:28:54;16.60;62.70
19039;DHT22;9652;49.014;12.052;2023-05-10T05:31:21;16.60;62.80
19039;DHT22;9652;49.014;12.052;2023-05-10T05:33:48;16.60;63.70
19039;DHT22;9652;49.014;12.052;2023-05-10T05:36:15;16.60;63.20
19039;DHT22;9652;49.014;12.052;2023-05-10T05:38:43;16.60;63.70
19039;DHT22;9652;49.014;12.052;2023-05-10T05:41:11;16.60;64.10
19039;DHT22;9652;49.014;12.052;2023-05-10T05:43:38;16.60;64.20
19039;DHT22;9652;49.014;12.052;2023-05-10T05:46:05;16.60;64.40
19039;DHT22;9652;49.014;12.052;2023-05-10T05:48:32;16.60;64.60
19039;DHT22;9652;49.014;12.052;2023-05-10T05:50:59;16.60;65.00
19039;DHT22;9652;49.014;12.052;2023-05-10T05:53:26;16.60;65.20
19039;DHT22;9652;49.014;12.052;2023-05-10T05:55:56;16.60;65.40
19039;DHT22;9652;49.014;12.052;2023-05-10T05:58:24;16.60;65.80
19039;DHT22;9652;49.014;12.052;2023-05-10T06:00:52;16.70;65.80
19039;DHT22;9652;49.014;12.052;2023-05-10T06:03:19;16.70;65.50
19039;DHT22;9652;49.014;12.052;2023-05-10T06:05:46;16.70;65.40
19039;DHT22;9652;49.014;12.052;2023-05-10T06:08:13;16.70;65.70
19039;DHT22;9652;49.014;12.052;2023-05-10T06:10:41;16.80;65.90
19039;DHT22;9652;49.014;12.052;2023-05-10T06:13:09;16.80;66.30
19039;DHT22;9652;49.014;12.052;2023-05-10T06:15:36;16.80;66.60
19039;DHT22;9652;49.014;12.052;2023-05-10T06:18:03;16.90;66.50
19039;DHT22;9652;49.014;12.052;2023-05-10T06:20:30;16.90;66.40
19039;DHT22;9652;49.014;12.052;2023-05-10T06:22:58;17.00;66.50
19039;DHT22;9652;49.014;12.052;2023-05-10T06:25:25;17.00;66.40
19039;DHT22;9652;49.014;12.052;2023-05-10T06:27:52;17.00;66.50
19039;DHT22;9652;49.014;12.052;2023-05-10T06:30:24;17.10;66.70
19039;DHT22;9652;49.014;12.052;2023-05-10T06:32:54;17.10;66.60
19039;DHT22;9652;49.014;12.052;2023-05-10T06:35:22;17.10;66.30
19039;DHT22;9652;49.014;12.052;2023-05-10T06:37:50;17.10;66.00
19039;DHT22;9652;49.014;12.052;2023-05-10T06:40:17;17.20;66.00
19039;DHT22;9652;49.014;12.052;2023-05-10T06:42:45;17.20;66.30
19039;DHT22;9652;49.014;12.052;2023-05-10T06:45:12;17.20;66.30
19039;DHT22;9652;49.014;12.052;2023-05-10T06:47:42;17.30;66.10
19039;DHT22;9652;49.014;12.052;2023-05-10T06:50:10;17.30;66.30
19039;DHT22;9652;49.014;12.052;2023-05-10T06:52:37;17.40;66.60
19039;DHT22;9652;49.014;12.052;2023-05-10T06:55:05;17.50;67.10
19039;DHT22;9652;49.014;12.052;2023-05-10T06:57:33;17.60;67.40
19039;DHT22;9652;49.014;12.052;2023-05-10T07:00:01;17.70;67.50
19039;DHT22;9652;49.014;12.052;2023-05-10T07:02:30;17.80;67.60
19039;DHT22;9652;49.014;12.052;2023-05-10T07:04:58;17.90;67.30
19039;DHT22;9652;49.014;12.052;2023-05-10T07:07:26;18.00;66.90
19039;DHT22;9652;49.014;12.052;2023-05-10T07:09:53;18.00;66.40
19039;DHT22;9652;49.014;12.052;2023-05-10T07:12:20;18.20;66.60
19039;DHT22;9652;49.014;12.052;2023-05-10T07:14:47;18.20;66.80
19039;DHT22;9652;49.014;12.052;2023-05-10T07:17:14;18.30;66.70
19039;DHT22;9652;49.014;12.052;2023-05-10T07:19:41;18.30;66.20
19039;DHT22;9652;49.014;12.052;2023-05-10T07:22:10;18.40;65.80
19039;DHT22;9652;49.014;12.052;2023-05-10T07:24:37;18.40;65.80
19039;DHT22;9652;49.014;12.052;2023-05-10T07:27:04;18.40;66.00
19039;DHT22;9652;49.014;12.052;2023-05-10T07:29:31;18.40;66.20
19039;DHT22;9652;49.014;12.052;2023-05-10T07:31:58;18.40;66.50
19039;DHT22;9652;49.014;12.052;2023-05-10T07:34:25;18.40;66.90
19039;DHT22;9652;49.014;12.052;2023-05-10T07:36:53;18.50;67.40
19039;DHT22;9652;49.014;12.052;2023-05-10T07:39:22;18.60;67.70
19039;DHT22;9652;49.014;12.052;2023-05-10T07:41:49;18.70;67.30
19039;DHT22;9652;49.014;12.052;2023-05-10T07:44:16;18.70;67.30
19039;DHT22;9652;49.014;12.052;2023-05-10T07:46:44;18.80;67.50
19039;DHT22;9652;49.014;12.052;2023-05-10T07:49:11;18.90;67.30
19039;DHT22;9652;49.014;12.052;2023-05-10T07:51:38;19.00;67.40
19039;DHT22;9652;49.014;12.052;2023-05-10T07:54:05;19.20;67.00
19039;DHT22;9652;49.014;12.052;2023-05-10T07:56:33;19.20;66.90
19039;DHT22;9652;49.014;12.052;2023-05-10T07:59:02;19.40;66.90
19039;DHT22;9652;49.014;12.052;2023-05-10T08:01:31;19.50;66.60
19039;DHT22;9652;49.014;12.052;2023-05-10T08:03:59;19.60;66.30
19039;DHT22;9652;49.014;12.052;2023-05-10T08:06:27;19.70;66.20
19039;DHT22;9652;49.014;12.052;2023-05-10T08:08:55;19.70;65.30
19039;DHT22;9652;49.014;12.052;2023-05-10T08:11:23;19.80;65.90
19039;DHT22;9652;49.014;12.052;2023-05-10T08:13:51;19.80;65.10
19039;DHT22;9652;49.014;12.052;2023-05-10T08:16:19;19.90;64.90
19039;DHT22;9652;49.014;12.052;2023-05-10T08:18:47;20.00;65.00
19039;DHT22;9652;49.014;12.052;2023-05-10T08:21:16;20.10;64.70
19039;DHT22;9652;49.014;12.052;2023-05-10T08:23:43;20.10;64.30
19039;DHT22;9652;49.014;12.052;2023-05-10T08:26:10;20.20;64.20
19039;DHT22;9652;49.014;12.052;2023-05-10T08:28:38;20.20;63.80
19039;DHT22;9652;49.014;12.052;2023-05-10T08:31:07;20.30;63.70
19039;DHT22;9652;49.014;12.052;2023-05-10T08:33:34;20.30;63.40
19039;DHT22;9652;49.014;12.052;2023-05-10T08:36:01;20.30;63.40
19039;DHT22;9652;49.014;12.052;2023-05-10T08:38:28;20.40;63.10
19039;DHT22;9652;49.014;12.052;2023-05-10T08:40:55;20.40;63.10
19039;DHT22;9652;49.014;12.052;2023-05-10T08:43:26;20.40;62.90
19039;DHT22;9652;49.014;12.052;2023-05-10T08:45:55;20.50;62.80
19039;DHT22;9652;49.014;12.052;2023-05-10T08:48:24;20.50;62.60
19039;DHT22;9652;49.014;12.052;2023-05-10T08:50:53;20.60;62.30
19039;DHT22;9652;49.014;12.052;2023-05-10T08:53:22;20.60;62.10
19039;DHT22;9652;49.014;12.052;2023-05-10T08:55:52;20.70;62.10
19039;DHT22;9652;49.014;12.052;2023-05-10T08:58:20;20.70;62.00
19039;DHT22;9652;49.014;12.052;2023-05-10T09:00:49;20.70;62.10
19039;DHT22;9652;49.014;12.052;2023-05-10T09:03:17;20.70;61.70
19039;DHT22;9652;49.014;12.052;2023-05-10T09:05:46;20.70;61.20
19039;DHT22;9652;49.014;12.052;2023-05-10T09:08:14;20.60;60.80
19039;DHT22;9652;49.014;12.052;2023-05-10T09:10:43;20.60;60.50
19039;DHT22;9652;49.014;12.052;2023-05-10T09:13:14;20.60;60.60
19039;DHT22;9652;49.014;12.052;2023-05-10T09:15:42;20.50;60.50
19039;DHT22;9652;49.014;12.052;2023-05-10T09:18:10;20.40;60.50
19039;DHT22;9652;49.014;12.052;2023-05-10T09:20:37;20.40;61.40
19039;DHT22;9652;49.014;12.052;2023-05-10T09:23:06;20.40;61.30
19039;DHT22;9652;49.014;12.052;2023-05-10T09:25:33;20.40;61.90
19039;DHT22;9652;49.014;12.052;2023-05-10T09:28:06;20.50;61.70
19039;DHT22;9652;49.014;12.052;2023-05-10T09:30:34;20.50;61.40
19039;DHT22;9652;49.014;12.052;2023-05-10T09:33:01;20.60;61.50
19039;DHT22;9652;49.014;12.052;2023-05-10T09:35:30;20.70;61.30
19039;DHT22;9652;49.014;12.052;2023-05-10T09:38:01;20.80;61.50
19039;DHT22;9652;49.014;12.052;2023-05-10T09:40:32;20.90;61.40
19039;DHT22;9652;49.014;12.052;2023-05-10T09:43:00;21.00;61.00
19039;DHT22;9652;49.014;12.052;2023-05-10T09:45:32;21.20;61.10
19039;DHT22;9652;49.014;12.052;2023-05-10T09:48:01;21.40;60.90
19039;DHT22;9652;49.014;12.052;2023-05-10T09:50:29;21.50;60.20
19039;DHT22;9652;49.014;12.052;2023-05-10T09:52:58;21.60;59.80
19039;DHT22;9652;49.014;12.052;2023-05-10T09:55:40;21.80;59.90
19039;DHT22;9652;49.014;12.052;2023-05-10T09:58:09;21.90;59.70
19039;DHT22;9652;49.014;12.052;2023-05-10T10:00:38;22.00;59.70
19039;DHT22;9652;49.014;12.052;2023-05-10T10:03:14;22.10;59.50
19039;DHT22;9652;49.014;12.052;2023-05-10T10:05:43;22.30;58.80
19039;DHT22;9652;49.014;12.052;2023-05-10T10:08:12;22.40;58.50
19039;DHT22;9652;49.014;12.052;2023-05-10T10:10:42;22.50;58.50
19039;DHT22;9652;49.014;12.052;2023-05-10T10:13:10;22.60;58.50
19039;DHT22;9652;49.014;12.052;2023-05-10T10:15:38;22.70;58.50
19039;DHT22;9652;49.014;12.052;2023-05-10T10:18:05;22.80;58.60
19039;DHT22;9652;49.014;12.052;2023-05-10T10:20:33;22.80;58.00
19039;DHT22;9652;49.014;12.052;2023-05-10T10:23:00;23.00;57.70
19039;DHT22;9652;49.014;12.052;2023-05-10T10:25:27;23.10;57.50
19039;DHT22;9652;49.014;12.052;2023-05-10T10:28:06;23.20;57.60
19039;DHT22;9652;49.014;12.052;2023-05-10T10:30:44;23.30;56.50
19039;DHT22;9652;49.014;12.052;2023-05-10T10:33:33;23.40;56.70
19039;DHT22;9652;49.014;12.052;2023-05-10T10:36:07;23.60;55.90
19039;DHT22;9652;49.014;12.052;2023-05-10T10:38:54;23.70;56.30
19039;DHT22;9652;49.014;12.052;2023-05-10T10:41:32;23.70;55.10
19039;DHT22;9652;49.014;12.052;2023-05-10T10:44:33;23.80;55.40
19039;DHT22;9652;49.014;12.052;2023-05-10T10:47:22;23.90;54.50
19039;DHT22;9652;49.014;12.052;2023-05-10T10:49:51;24.00;54.80
19039;DHT22;9652;49.014;12.052;2023-05-10T10:52:31;24.00;54.60
19039;DHT22;9652;49.014;12.052;2023-05-10T10:55:01;24.00;54.10
19039;DHT22;9652;49.014;12.052;2023-05-10T10:57:43;24.00;54.30
19039;DHT22;9652;49.014;12.052;2023-05-10T11:00:25;24.00;53.60
19039;DHT22;9652;49.014;12.052;2023-05-10T11:02:56;24.00;53.70
19039;DHT22;9652;49.014;12.052;2023-05-10T11:08:16;23.90;54.00
19039;DHT22;9652;49.014;12.052;2023-05-10T11:11:02;24.00;54.20
19039;DHT22;9652;49.014;12.052;2023-05-10T11:13:34;24.00;53.80
19039;DHT22;9652;49.014;12.052;2023-05-10T11:16:15;24.10;54.10
19039;DHT22;9652;49.014;12.052;2023-05-10T11:18:57;24.10;53.50
19039;DHT22;9652;49.014;12.052;2023-05-10T11:21:27;24.20;53.50
19039;DHT22;9652;49.014;12.052;2023-05-10T11:23:55;24.30;53.40
19039;DHT22;9652;49.014;12.052;2023-05-10T11:26:23;24.30;52.90
19039;DHT22;9652;49.014;12.052;2023-05-10T11:28:53;24.20;52.70
19039;DHT22;9652;49.014;12.052;2023-05-10T11:31:23;24.20;52.10
19039;DHT22;9652;49.014;12.052;2023-05-10T11:33:53;24.10;51.90
19039;DHT22;9652;49.014;12.052;2023-05-10T11:36:25;23.90;51.80
19039;DHT22;9652;49.014;12.052;2023-05-10T11:38:55;23.90;52.10
19039;DHT22;9652;49.014;12.052;2023-05-10T11:41:23;23.90;52.80
19039;DHT22;9652;49.014;12.052;2023-05-10T11:43:53;23.90;52.90
19039;DHT22;9652;49.014;12.052;2023-05-10T11:46:24;23.90;52.90
19039;DHT22;9652;49.014;12.052;2023-05-10T11:48:56;24.00;52.90
19039;DHT22;9652;49.014;12.052;2023-05-10T11:51:26;24.10;53.20
19039;DHT22;9652;49.014;12.052;2023-05-10T11:53:55;24.20;53.00
19039;DHT22;9652;49.014;12.052;2023-05-10T11:56:23;24.40;52.90
19039;DHT22;9652;49.014;12.052;2023-05-10T11:58:55;24.50;52.70
19039;DHT22;9652;49.014;12.052;2023-05-10T12:01:27;24.70;52.30
19039;DHT22;9652;49.014;12.052;2023-05-10T12:03:55;24.90;51.90
19039;DHT22;9652;49.014;12.052;2023-05-10T12:06:27;25.10;51.60
19039;DHT22;9652;49.014;12.052;2023-05-10T12:08:57;25.20;50.80
19039;DHT22;9652;49.014;12.052;2023-05-10T12:11:26;25.30;50.60
19039;DHT22;9652;49.014;12.052;2023-05-10T12:13:55;25.40;50.00
19039;DHT22;9652;49.014;12.052;2023-05-10T12:16:23;25.50;50.30
19039;DHT22;9652;49.014;12.052;2023-05-10T12:18:56;25.50;50.00
19039;DHT22;9652;49.014;12.052;2023-05-10T12:21:25;25.60;49.60
19039;DHT22;9652;49.014;12.052;2023-05-10T12:23:54;25.70;49.70
19039;DHT22;9652;49.014;12.052;2023-05-10T12:26:25;25.70;49.50
19039;DHT22;9652;49.014;12.052;2023-05-10T12:28:55;25.80;49.20
19039;DHT22;9652;49.014;12.052;2023-05-10T12:31:51;25.80;48.50
19039;DHT22;9652;49.014;12.052;2023-05-10T12:34:25;25.80;48.10
19039;DHT22;9652;49.014;12.052;2023-05-10T12:36:53;25.60;47.90
19039;DHT22;9652;49.014;12.052;2023-05-10T12:39:21;25.40;47.90
19039;DHT22;9652;49.014;12.052;2023-05-10T12:41:48;25.20;48.10
19039;DHT22;9652;49.014;12.052;2023-05-10T12:44:15;25.00;48.30
19039;DHT22;9652;49.014;12.052;2023-05-10T12:46:43;24.70;48.40
19039;DHT22;9652;49.014;12.052;2023-05-10T12:49:11;24.40;48.60
19039;DHT22;9652;49.014;12.052;2023-05-10T12:51:38;24.20;48.60
19039;DHT22;9652;49.014;12.052;2023-05-10T12:54:05;23.90;48.00
19039;DHT22;9652;49.014;12.052;2023-05-10T12:56:32;23.60;48.50
19039;DHT22;9652;49.014;12.052;2023-05-10T12:58:59;23.30;50.50
19039;DHT22;9652;49.014;12.052;2023-05-10T13:01:26;22.90;53.00
19039;DHT22;9652;49.014;12.052;2023-05-10T13:03:53;22.50;55.70
19039;DHT22;9652;49.014;12.052;2023-05-10T13:06:22;22.00;57.50
19039;DHT22;9652;49.014;12.052;2023-05-10T13:08:49;21.60;58.90
19039;DHT22;9652;49.014;12.052;2023-05-10T13:11:17;21.20;59.90
19039;DHT22;9652;49.014;12.052;2023-05-10T13:13:45;20.90;61.70
19039;DHT22;9652;49.014;12.052;2023-05-10T13:16:12;20.60;63.30
19039;DHT22;9652;49.014;12.052;2023-05-10T13:18:39;20.40;64.60
19039;DHT22;9652;49.014;12.052;2023-05-10T13:21:06;20.20;65.60
19039;DHT22;9652;49.014;12.052;2023-05-10T13:23:35;20.10;66.70
19039;DHT22;9652;49.014;12.052;2023-05-10T13:26:02;20.00;67.80
19039;DHT22;9652;49.014;12.052;2023-05-10T13:28:29;19.90;68.70
19039;DHT22;9652;49.014;12.052;2023-05-10T13:30:56;19.80;69.30
19039;DHT22;9652;49.014;12.052;2023-05-10T13:33:23;19.80;69.70
19039;DHT22;9652;49.014;12.052;2023-05-10T13:35:50;19.80;70.10
19039;DHT22;9652;49.014;12.052;2023-05-10T13:38:17;19.70;70.60
19039;DHT22;9652;49.014;12.052;2023-05-10T13:40:45;19.70;71.30
19039;DHT22;9652;49.014;12.052;2023-05-10T13:43:13;19.70;72.10
19039;DHT22;9652;49.014;12.052;2023-05-10T13:45:40;19.70;72.60
19039;DHT22;9652;49.014;12.052;2023-05-10T13:48:07;19.80;73.10
19039;DHT22;9652;49.014;12.052;2023-05-10T13:50:35;19.70;73.00
19039;DHT22;9652;49.014;12.052;2023-05-10T13:53:02;19.80;73.00
19039;DHT22;9652;49.014;12.052;2023-05-10T13:55:29;19.80;72.90
19039;DHT22;9652;49.014;12.052;2023-05-10T13:57:57;19.70;72.70
19039;DHT22;9652;49.014;12.052;2023-05-10T14:00:24;19.80;72.80
19039;DHT22;9652;49.014;12.052;2023-05-10T14:02:51;19.70;73.00
19039;DHT22;9652;49.014;12.052;2023-05-10T14:05:18;19.70;72.90
19039;DHT22;9652;49.014;12.052;2023-05-10T14:07:46;19.70;73.20
19039;DHT22;9652;49.014;12.052;2023-05-10T14:10:13;19.80;73.70
19039;DHT22;9652;49.014;12.052;2023-05-10T14:12:40;19.80;73.70
19039;DHT22;9652;49.014;12.052;2023-05-10T14:15:09;19.80;73.50
19039;DHT22;9652;49.014;12.052;2023-05-10T14:17:37;19.80;73.00
19039;DHT22;9652;49.014;12.052;2023-05-10T14:20:05;19.80;72.40
19039;DHT22;9652;49.014;12.052;2023-05-10T14:22:33;19.80;71.80
19039;DHT22;9652;49.014;12.052;2023-05-10T14:25:00;19.80;71.30
19039;DHT22;9652;49.014;12.052;2023-05-10T14:27:27;19.70;70.90
19039;DHT22;9652;49.014;12.052;2023-05-10T14:29:54;19.70;70.60
19039;DHT22;9652;49.014;12.052;2023-05-10T14:32:22;19.60;70.30
19039;DHT22;9652;49.014;12.052;2023-05-10T14:34:50;19.60;70.70
19039;DHT22;9652;49.014;12.052;2023-05-10T14:37:17;19.50;72.00
19039;DHT22;9652;49.014;12.052;2023-05-10T14:39:44;19.50;71.50
19039;DHT22;9652;49.014;12.052;2023-05-10T14:42:11;19.50;71.60
19039;DHT22;9652;49.014;12.052;2023-05-10T14:44:39;19.50;71.60
19039;DHT22;9652;49.014;12.052;2023-05-10T14:47:06;19.40;71.30
19039;DHT22;9652;49.014;12.052;2023-05-10T14:49:34;19.40;71.10
19039;DHT22;9652;49.014;12.052;2023-05-10T14:52:01;19.40;71.10
19039;DHT22;9652;49.014;12.052;2023-05-10T14:54:29;19.40;70.70
19039;DHT22;9652;49.014;12.052;2023-05-10T14:56:56;19.40;70.80
19039;DHT22;9652;49.014;12.052;2023-05-10T14:59:23;19.40;71.00
19039;DHT22;9652;49.014;12.052;2023-05-10T15:01:50;19.30;71.00
19039;DHT22;9652;49.014;12.052;2023-05-10T15:04:18;19.30;70.70
19039;DHT22;9652;49.014;12.052;2023-05-10T15:06:46;19.30;71.10
19039;DHT22;9652;49.014;12.052;2023-05-10T15:09:13;19.30;70.20
19039;DHT22;9652;49.014;12.052;2023-05-10T15:11:41;19.20;69.80
19039;DHT22;9652;49.014;12.052;2023-05-10T15:14:08;19.20;69.20
19039;DHT22;9652;49.014;12.052;2023-05-10T15:16:35;19.10;69.20
19039;DHT22;9652;49.014;12.052;2023-05-10T15:19:02;19.00;69.20
19039;DHT22;9652;49.014;12.052;2023-05-10T15:21:29;19.00;69.70
19039;DHT22;9652;49.014;12.052;2023-05-10T15:24:02;18.90;69.90
19039;DHT22;9652;49.014;12.052;2023-05-10T15:26:29;18.90;70.20
19039;DHT22;9652;49.014;12.052;2023-05-10T15:28:56;18.80;70.20
19039;DHT22;9652;49.014;12.052;2023-05-10T15:31:23;18.70;70.30
19039;DHT22;9652;49.014;12.052;2023-05-10T15:33:50;18.70;70.70
19039;DHT22;9652;49.014;12.052;2023-05-10T15:36:18;18.70;71.10
19039;DHT22;9652;49.014;12.052;2023-05-10T15:38:45;18.70;71.40
19039;DHT22;9652;49.014;12.052;2023-05-10T15:41:13;18.70;71.40
19039;DHT22;9652;49.014;12.052;2023-05-10T15:43:40;18.70;71.40
19039;DHT22;9652;49.014;12.052;2023-05-10T15:46:07;18.70;71.30